Nautilus — OUYX2 — position and weather

sailwx.info

Track history (hours):
 
Tides and Currents Weather Stations Pressure Air Temp Water Temp Dewpoint Dewpoint Depression Visibility Wind Speed Wind Dir Waves Ship Positions

Nautilus

Last reported at 2014-Oct-24 05:05 UTC. Time now 2014-Oct-25 19:48 UTC.
Position N 57°07' E 019°28'.

Length 120 m; draft 6.9 m.

Type: Ship. MMSI: 219425000.

Date/timePositionNaut miles runAvg speedWind from/ knotsBaromVisibWave heightAir tempDewpointWater temp
2014-Oct-24 05:05N 57°07' E 019°28'3411.3
2014-Oct-24 02:06N 56°49' E 018°35'911.4
2014-Oct-24 01:19N 56°44' E 018°21'911.5
2014-Oct-24 00:32N 56°39' E 018°09'1311.8
2014-Oct-23 23:26N 56°31' E 017°50'1111.6
2014-Oct-23 22:27N 56°24' E 017°33'4511.4
2014-Oct-23 18:32N 55°59' E 016°26'16 1.0
2014-Oct-23 01:33N 56°11' E 016°07'1010.1
2014-Oct-23 00:33N 56°02' E 016°00'10 9.9
2014-Oct-22 23:34N 55°53' E 015°54'27 9.0
2014-Oct-22 20:33N 55°36' E 015°16'9 9.5
2014-Oct-22 19:33N 55°31' E 015°02'9 9.4
2014-Oct-22 18:33N 55°28' E 014°46'9 8.5
2014-Oct-22 17:33N 55°22' E 014°35'9 9.2
2014-Oct-22 16:33N 55°15' E 014°25'9 9.2
2014-Oct-22 15:33N 55°11' E 014°11'1010.0
2014-Oct-22 14:33N 55°11' E 013°54'1110.5
2014-Oct-22 13:29N 55°11' E 013°34'1210.8
2014-Oct-22 12:23N 55°12' E 013°13'910.7
2014-Oct-22 11:33N 55°13' E 012°58'1110.7
2014-Oct-22 10:33N 55°17' E 012°41'9 9.4
2014-Oct-22 09:33N 55°27' E 012°40'10 9.7
2014-Oct-22 08:33N 55°36' E 012°42'9 9.4
2014-Oct-22 07:33N 55°46' E 012°41'1110.7
2014-Oct-22 06:33N 55°56' E 012°38'9 9.1
2014-Oct-22 05:33N 56°05' E 012°35'9 9.0
2014-Oct-22 04:33N 56°11' E 012°22'9 9.4
2014-Oct-22 03:33N 56°11' E 012°05'6 0.2
2014-Oct-20 23:33N 56°10' E 011°55'1212.2
2014-Oct-20 22:33N 56°12' E 012°17'1110.9
2014-Oct-20 21:33N 56°06' E 012°34'1010.0
2014-Oct-20 20:33N 55°58' E 012°42'1110.9
2014-Oct-20 19:33N 55°47' E 012°48'1110.9
2014-Oct-20 18:33N 55°39' E 013°00'1 0.9
2014-Oct-20 17:32N 55°38' E 013°01'0 0.0
2014-Oct-20 16:20N 55°38' E 013°01'0 0.0
2014-Oct-20 15:32N 55°38' E 013°01'0 0.0
2014-Oct-20 14:29N 55°38' E 013°01'0 0.0
2014-Oct-20 13:32N 55°38' E 013°01'0 0.0
2014-Oct-20 12:29N 55°38' E 013°01'0 0.0
2014-Oct-20 11:32N 55°38' E 013°01'0 0.0
2014-Oct-20 10:29N 55°38' E 013°01'0 0.0
2014-Oct-20 09:32N 55°38' E 013°01'0 0.0
2014-Oct-20 08:32N 55°38' E 013°01'0 0.0
2014-Oct-20 07:30N 55°38' E 013°01'4 4.6
2014-Oct-20 06:34N 55°41' E 012°56'1110.7
2014-Oct-20 05:34N 55°49' E 012°43'9 9.1
2014-Oct-20 04:34N 55°58' E 012°40'1111.3
2014-Oct-20 03:34N 56°08' E 012°29'1111.3
2014-Oct-20 02:34N 56°12' E 012°11'10 0.4
2014-Oct-18 21:34N 56°10' E 011°53'1110.7
2014-Oct-18 20:34N 56°13' E 012°11'1211.9
2014-Oct-18 19:34N 56°08' E 012°31'1413.5
2014-Oct-18 18:33N 55°56' E 012°44'1212.3
2014-Oct-18 17:34N 55°45' E 012°51'1010.1
2014-Oct-18 16:33N 55°35' E 012°50'1312.6
2014-Oct-18 15:34N 55°23' E 012°41'1010.1
2014-Oct-18 14:34N 55°16' E 012°54'1212.4
2014-Oct-18 13:33N 55°15' E 013°15'3712.3
2014-Oct-18 10:34N 55°16' E 014°20'1311.9
2014-Oct-18 09:30N 55°26' E 014°34'1112.2
2014-Oct-18 08:33N 55°32' E 014°51'1212.1
2014-Oct-18 07:32N 55°39' E 015°10'3712.5
2014-Oct-18 04:34N 55°57' E 016°08'1312.7
2014-Oct-18 03:32N 56°04' E 016°28'21010.8
2014-Oct-17 08:05N 59°23' E 018°27'4 7.1
2014-Oct-17 07:32N 59°22' E 018°19'6 1.4
2014-Oct-17 03:13N 59°21' E 018°08'0 0.0
2014-Oct-17 01:07N 59°21' E 018°08'0 0.0
2014-Oct-17 00:31N 59°21' E 018°08'0 0.0
2014-Oct-16 23:28N 59°21' E 018°08'0 0.0
2014-Oct-16 22:22N 59°21' E 018°08'0 0.0
2014-Oct-16 21:22N 59°21' E 018°08'0 0.0
2014-Oct-16 20:22N 59°21' E 018°08'0 0.0
2014-Oct-16 19:22N 59°21' E 018°08'0 0.0
2014-Oct-16 18:31N 59°21' E 018°08'0 0.0
2014-Oct-16 17:19N 59°21' E 018°08'0 0.0
2014-Oct-16 16:34N 59°21' E 018°08'8 7.8
2014-Oct-16 15:31N 59°22' E 018°24'59 5.2
2014-Oct-16 04:12N 58°38' E 017°08'811.7
2014-Oct-16 03:31N 58°36' E 016°53'1111.1
2014-Oct-16 02:34N 58°39' E 016°33'9 9.4
2014-Oct-16 01:34N 58°37' E 016°15'0 0.0
2014-Oct-16 00:33N 58°37' E 016°15'0 0.0
2014-Oct-15 23:33N 58°37' E 016°15'0 0.0
2014-Oct-15 22:30N 58°37' E 016°15'0 0.0
2014-Oct-15 21:33N 58°37' E 016°15'0 0.0
2014-Oct-15 20:33N 58°37' E 016°15'0 0.0
2014-Oct-15 19:33N 58°37' E 016°15'0 0.0
2014-Oct-15 18:33N 58°37' E 016°15'0 0.0
2014-Oct-15 17:33N 58°37' E 016°15'7 6.8
2014-Oct-15 16:34N 58°39' E 016°27'1212.0
2014-Oct-15 15:34N 58°37' E 016°50'188 9.2
2014-Oct-14 19:11N 55°36' E 015°17'812.1
2014-Oct-14 18:29N 55°32' E 015°04'1212.3
2014-Oct-14 17:33N 55°26' E 014°46'1211.8
2014-Oct-14 16:34N 55°18' E 014°31'1111.0
2014-Oct-14 15:34N 55°11' E 014°17'3712.1
2014-Oct-14 12:29N 55°12' E 013°12'1112.1
2014-Oct-14 11:33N 55°14' E 012°53'1010.3
2014-Oct-14 10:33N 55°21' E 012°39'1212.3
2014-Oct-14 09:33N 55°33' E 012°42'1212.1
2014-Oct-14 08:34N 55°45' E 012°41'1212.1
2014-Oct-14 07:34N 55°57' E 012°39'1111.4
2014-Oct-14 06:33N 56°07' E 012°30'1211.9
2014-Oct-14 05:34N 56°18' E 012°21'  
Track history (hours):
 
Tides and Currents Weather Stations Pressure Air Temp Water Temp Dewpoint Dewpoint Depression Visibility Wind Speed Wind Dir Waves Ship Positions

Nautilus

Last reported at 2014-Oct-24 05:05 UTC. Time now 2014-Oct-25 19:48 UTC.
Position N 57°07' E 019°28'.

Length 120 m; draft 6.9 m.

Type: Ship. MMSI: 219425000.

Date/timePositionNaut miles runAvg speedWind from/ knotsBaromVisibWave heightAir tempDewpointWater temp
2014-Oct-24 05:05N 57°07' E 019°28'3411.3
2014-Oct-24 02:06N 56°49' E 018°35'911.4
2014-Oct-24 01:19N 56°44' E 018°21'911.5
2014-Oct-24 00:32N 56°39' E 018°09'1311.8
2014-Oct-23 23:26N 56°31' E 017°50'1111.6
2014-Oct-23 22:27N 56°24' E 017°33'4511.4
2014-Oct-23 18:32N 55°59' E 016°26'16 1.0
2014-Oct-23 01:33N 56°11' E 016°07'1010.1
2014-Oct-23 00:33N 56°02' E 016°00'10 9.9
2014-Oct-22 23:34N 55°53' E 015°54'27 9.0
2014-Oct-22 20:33N 55°36' E 015°16'9 9.5
2014-Oct-22 19:33N 55°31' E 015°02'9 9.4
2014-Oct-22 18:33N 55°28' E 014°46'9 8.5
2014-Oct-22 17:33N 55°22' E 014°35'9 9.2
2014-Oct-22 16:33N 55°15' E 014°25'9 9.2
2014-Oct-22 15:33N 55°11' E 014°11'1010.0
2014-Oct-22 14:33N 55°11' E 013°54'1110.5
2014-Oct-22 13:29N 55°11' E 013°34'1210.8
2014-Oct-22 12:23N 55°12' E 013°13'910.7
2014-Oct-22 11:33N 55°13' E 012°58'1110.7
2014-Oct-22 10:33N 55°17' E 012°41'9 9.4
2014-Oct-22 09:33N 55°27' E 012°40'10 9.7
2014-Oct-22 08:33N 55°36' E 012°42'9 9.4
2014-Oct-22 07:33N 55°46' E 012°41'1110.7
2014-Oct-22 06:33N 55°56' E 012°38'9 9.1
2014-Oct-22 05:33N 56°05' E 012°35'9 9.0
2014-Oct-22 04:33N 56°11' E 012°22'9 9.4
2014-Oct-22 03:33N 56°11' E 012°05'6 0.2
2014-Oct-20 23:33N 56°10' E 011°55'1212.2
2014-Oct-20 22:33N 56°12' E 012°17'1110.9
2014-Oct-20 21:33N 56°06' E 012°34'1010.0
2014-Oct-20 20:33N 55°58' E 012°42'1110.9
2014-Oct-20 19:33N 55°47' E 012°48'1110.9
2014-Oct-20 18:33N 55°39' E 013°00'1 0.9
2014-Oct-20 17:32N 55°38' E 013°01'0 0.0
2014-Oct-20 16:20N 55°38' E 013°01'0 0.0
2014-Oct-20 15:32N 55°38' E 013°01'0 0.0
2014-Oct-20 14:29N 55°38' E 013°01'0 0.0
2014-Oct-20 13:32N 55°38' E 013°01'0 0.0
2014-Oct-20 12:29N 55°38' E 013°01'0 0.0
2014-Oct-20 11:32N 55°38' E 013°01'0 0.0
2014-Oct-20 10:29N 55°38' E 013°01'0 0.0
2014-Oct-20 09:32N 55°38' E 013°01'0 0.0
2014-Oct-20 08:32N 55°38' E 013°01'0 0.0
2014-Oct-20 07:30N 55°38' E 013°01'4 4.6
2014-Oct-20 06:34N 55°41' E 012°56'1110.7
2014-Oct-20 05:34N 55°49' E 012°43'9 9.1
2014-Oct-20 04:34N 55°58' E 012°40'1111.3
2014-Oct-20 03:34N 56°08' E 012°29'1111.3
2014-Oct-20 02:34N 56°12' E 012°11'10 0.4
2014-Oct-18 21:34N 56°10' E 011°53'1110.7
2014-Oct-18 20:34N 56°13' E 012°11'1211.9
2014-Oct-18 19:34N 56°08' E 012°31'1413.5
2014-Oct-18 18:33N 55°56' E 012°44'1212.3
2014-Oct-18 17:34N 55°45' E 012°51'1010.1
2014-Oct-18 16:33N 55°35' E 012°50'1312.6
2014-Oct-18 15:34N 55°23' E 012°41'1010.1
2014-Oct-18 14:34N 55°16' E 012°54'1212.4
2014-Oct-18 13:33N 55°15' E 013°15'3712.3
2014-Oct-18 10:34N 55°16' E 014°20'1311.9
2014-Oct-18 09:30N 55°26' E 014°34'1112.2
2014-Oct-18 08:33N 55°32' E 014°51'1212.1
2014-Oct-18 07:32N 55°39' E 015°10'3712.5
2014-Oct-18 04:34N 55°57' E 016°08'1312.7
2014-Oct-18 03:32N 56°04' E 016°28'21010.8
2014-Oct-17 08:05N 59°23' E 018°27'4 7.1
2014-Oct-17 07:32N 59°22' E 018°19'6 1.4
2014-Oct-17 03:13N 59°21' E 018°08'0 0.0
2014-Oct-17 01:07N 59°21' E 018°08'0 0.0
2014-Oct-17 00:31N 59°21' E 018°08'0 0.0
2014-Oct-16 23:28N 59°21' E 018°08'0 0.0
2014-Oct-16 22:22N 59°21' E 018°08'0 0.0
2014-Oct-16 21:22N 59°21' E 018°08'0 0.0
2014-Oct-16 20:22N 59°21' E 018°08'0 0.0
2014-Oct-16 19:22N 59°21' E 018°08'0 0.0
2014-Oct-16 18:31N 59°21' E 018°08'0 0.0
2014-Oct-16 17:19N 59°21' E 018°08'0 0.0
2014-Oct-16 16:34N 59°21' E 018°08'8 7.8
2014-Oct-16 15:31N 59°22' E 018°24'59 5.2
2014-Oct-16 04:12N 58°38' E 017°08'811.7
2014-Oct-16 03:31N 58°36' E 016°53'1111.1
2014-Oct-16 02:34N 58°39' E 016°33'9 9.4
2014-Oct-16 01:34N 58°37' E 016°15'0 0.0
2014-Oct-16 00:33N 58°37' E 016°15'0 0.0
2014-Oct-15 23:33N 58°37' E 016°15'0 0.0
2014-Oct-15 22:30N 58°37' E 016°15'0 0.0
2014-Oct-15 21:33N 58°37' E 016°15'0 0.0
2014-Oct-15 20:33N 58°37' E 016°15'0 0.0
2014-Oct-15 19:33N 58°37' E 016°15'0 0.0
2014-Oct-15 18:33N 58°37' E 016°15'0 0.0
2014-Oct-15 17:33N 58°37' E 016°15'7 6.8
2014-Oct-15 16:34N 58°39' E 016°27'1212.0
2014-Oct-15 15:34N 58°37' E 016°50'188 9.2
2014-Oct-14 19:11N 55°36' E 015°17'812.1
2014-Oct-14 18:29N 55°32' E 015°04'1212.3
2014-Oct-14 17:33N 55°26' E 014°46'1211.8
2014-Oct-14 16:34N 55°18' E 014°31'1111.0
2014-Oct-14 15:34N 55°11' E 014°17'3712.1
2014-Oct-14 12:29N 55°12' E 013°12'1112.1
2014-Oct-14 11:33N 55°14' E 012°53'1010.3
2014-Oct-14 10:33N 55°21' E 012°39'1212.3
2014-Oct-14 09:33N 55°33' E 012°42'1212.1
2014-Oct-14 08:34N 55°45' E 012°41'1212.1
2014-Oct-14 07:34N 55°57' E 012°39'1111.4
2014-Oct-14 06:33N 56°07' E 012°30'1211.9
2014-Oct-14 05:34N 56°18' E 012°21'  

Dump ship's entire track history